Spooner, Minnesota
Current Conditions -  °F | °C
As of 12:53 AM on Sunday 23 Nov 2014 (Local Time) from KBDE Reporting Station
Overcast Overcast  
Wind Chill: 25°   Ceiling: 1300
Heat Index: 34°   Visibility: 8mi
Dew Point: 29°   Wind: 14mph
Humidity: 82%   Direction: 180°S
Pressure: 29.4"   Gusts: 22mph
Location:  48.5595°N, 94.661°W
Report Text: KBDE 230653Z AUTO 18012G19KT 8SM OVC013 01/M02 A2940 RMK AO2 SLP967 T00111017 TSNO
Loading
Personal Weather Stations






























Interactive Weather Map New forecast layout! Learn more

10-Day Weather Forecast

Advertisements
Track Severe Weather on mobile